sensor_id;sensor_type;location;lat;lon;timestamp;pressure;altitude;pressure_sealevel;temperature;humidity
44685;BME280;76140;45.696;8.652;2024-02-16T00:00:53;99046.67;;;2.45;37.95
44685;BME280;76140;45.696;8.652;2024-02-16T00:03:18;99046.28;;;1.83;38.81
44685;BME280;76140;45.696;8.652;2024-02-16T00:05:44;99043.33;;;2.40;38.37
44685;BME280;76140;45.696;8.652;2024-02-16T00:08:09;99037.54;;;2.80;37.91
44685;BME280;76140;45.696;8.652;2024-02-16T00:10:35;99037.82;;;2.85;38.01
44685;BME280;76140;45.696;8.652;2024-02-16T00:13:00;99040.71;;;1.97;38.62
44685;BME280;76140;45.696;8.652;2024-02-16T00:15:26;99036.65;;;3.13;37.48
44685;BME280;76140;45.696;8.652;2024-02-16T00:17:50;99038.39;;;3.17;37.23
44685;BME280;76140;45.696;8.652;2024-02-16T00:20:16;99038.77;;;3.31;37.30
44685;BME280;76140;45.696;8.652;2024-02-16T00:22:41;99037.76;;;3.05;37.46
44685;BME280;76140;45.696;8.652;2024-02-16T00:25:07;99036.89;;;2.74;37.71
44685;BME280;76140;45.696;8.652;2024-02-16T00:27:32;99034.01;;;3.02;37.30
44685;BME280;76140;45.696;8.652;2024-02-16T00:29:57;99033.30;;;2.33;38.33
44685;BME280;76140;45.696;8.652;2024-02-16T00:32:22;99027.54;;;2.83;37.44
44685;BME280;76140;45.696;8.652;2024-02-16T00:34:48;99027.61;;;3.09;37.73
44685;BME280;76140;45.696;8.652;2024-02-16T00:37:14;99029.26;;;2.85;37.93
44685;BME280;76140;45.696;8.652;2024-02-16T00:39:40;99028.77;;;3.07;38.02
44685;BME280;76140;45.696;8.652;2024-02-16T00:42:05;99028.41;;;2.32;38.29
44685;BME280;76140;45.696;8.652;2024-02-16T00:44:30;99027.55;;;2.48;38.15
44685;BME280;76140;45.696;8.652;2024-02-16T00:46:57;99030.45;;;2.84;38.13
44685;BME280;76140;45.696;8.652;2024-02-16T00:49:22;99030.35;;;2.81;38.16
44685;BME280;76140;45.696;8.652;2024-02-16T00:51:48;99024.87;;;2.59;38.35
44685;BME280;76140;45.696;8.652;2024-02-16T00:54:13;99027.66;;;2.45;38.46
44685;BME280;76140;45.696;8.652;2024-02-16T00:56:39;99026.80;;;2.95;38.11
44685;BME280;76140;45.696;8.652;2024-02-16T00:59:04;99027.62;;;3.15;38.39
44685;BME280;76140;45.696;8.652;2024-02-16T01:01:29;99026.61;;;2.51;38.88
44685;BME280;76140;45.696;8.652;2024-02-16T01:03:55;99022.68;;;3.26;38.40
44685;BME280;76140;45.696;8.652;2024-02-16T01:06:21;99025.33;;;2.77;38.26
44685;BME280;76140;45.696;8.652;2024-02-16T01:08:46;99027.45;;;3.55;38.05
44685;BME280;76140;45.696;8.652;2024-02-16T01:11:12;99028.96;;;2.83;37.93
44685;BME280;76140;45.696;8.652;2024-02-16T01:13:38;99032.49;;;3.06;37.90
44685;BME280;76140;45.696;8.652;2024-02-16T01:16:03;99035.81;;;3.49;37.54
44685;BME280;76140;45.696;8.652;2024-02-16T01:18:28;99034.43;;;3.28;37.60
44685;BME280;76140;45.696;8.652;2024-02-16T01:20:53;99033.50;;;3.10;38.15
44685;BME280;76140;45.696;8.652;2024-02-16T01:23:19;99032.39;;;2.51;38.58
44685;BME280;76140;45.696;8.652;2024-02-16T01:25:44;99033.04;;;2.11;38.96
44685;BME280;76140;45.696;8.652;2024-02-16T01:28:09;99028.23;;;2.46;38.81
44685;BME280;76140;45.696;8.652;2024-02-16T01:30:34;99030.80;;;3.13;38.05
44685;BME280;76140;45.696;8.652;2024-02-16T01:33:00;99029.72;;;2.90;38.27
44685;BME280;76140;45.696;8.652;2024-02-16T01:35:25;99026.57;;;3.14;37.98
44685;BME280;76140;45.696;8.652;2024-02-16T01:37:51;99019.41;;;2.52;38.35
44685;BME280;76140;45.696;8.652;2024-02-16T01:40:17;99017.41;;;3.12;38.05
44685;BME280;76140;45.696;8.652;2024-02-16T01:42:42;99016.76;;;2.90;38.09
44685;BME280;76140;45.696;8.652;2024-02-16T01:45:08;99015.04;;;2.84;38.16
44685;BME280;76140;45.696;8.652;2024-02-16T01:47:33;99016.19;;;3.51;37.45
44685;BME280;76140;45.696;8.652;2024-02-16T01:49:58;99007.42;;;2.90;38.18
44685;BME280;76140;45.696;8.652;2024-02-16T01:52:24;99003.94;;;2.17;38.74
44685;BME280;76140;45.696;8.652;2024-02-16T01:54:49;99005.13;;;3.28;38.11
44685;BME280;76140;45.696;8.652;2024-02-16T01:57:14;99006.55;;;3.48;37.73
44685;BME280;76140;45.696;8.652;2024-02-16T01:59:40;99002.19;;;3.44;37.97
44685;BME280;76140;45.696;8.652;2024-02-16T02:02:05;99001.82;;;3.50;37.77
44685;BME280;76140;45.696;8.652;2024-02-16T02:04:31;99002.57;;;3.46;38.21
44685;BME280;76140;45.696;8.652;2024-02-16T02:06:56;98998.73;;;3.61;37.90
44685;BME280;76140;45.696;8.652;2024-02-16T02:09:21;98994.16;;;3.07;38.13
44685;BME280;76140;45.696;8.652;2024-02-16T02:11:46;98990.74;;;2.04;39.24
44685;BME280;76140;45.696;8.652;2024-02-16T02:14:12;98993.38;;;3.64;38.14
44685;BME280;76140;45.696;8.652;2024-02-16T02:16:38;98991.28;;;3.40;38.32
44685;BME280;76140;45.696;8.652;2024-02-16T02:19:03;98990.06;;;2.55;38.86
44685;BME280;76140;45.696;8.652;2024-02-16T02:21:28;98987.14;;;2.47;39.08
44685;BME280;76140;45.696;8.652;2024-02-16T02:23:54;98985.45;;;2.82;38.78
44685;BME280;76140;45.696;8.652;2024-02-16T02:26:20;98983.82;;;2.72;38.97
44685;BME280;76140;45.696;8.652;2024-02-16T02:28:45;98979.01;;;2.15;40.01
44685;BME280;76140;45.696;8.652;2024-02-16T02:31:10;98977.66;;;2.29;39.96
44685;BME280;76140;45.696;8.652;2024-02-16T02:33:36;98974.54;;;2.40;39.62
44685;BME280;76140;45.696;8.652;2024-02-16T02:36:02;98971.63;;;2.93;39.27
44685;BME280;76140;45.696;8.652;2024-02-16T02:38:27;98969.73;;;2.93;39.29
44685;BME280;76140;45.696;8.652;2024-02-16T02:40:53;98965.98;;;2.61;39.33
44685;BME280;76140;45.696;8.652;2024-02-16T02:43:18;98961.55;;;3.02;38.86
44685;BME280;76140;45.696;8.652;2024-02-16T02:45:43;98957.55;;;2.13;39.94
44685;BME280;76140;45.696;8.652;2024-02-16T02:48:09;98949.78;;;2.37;39.54
44685;BME280;76140;45.696;8.652;2024-02-16T02:50:34;98947.76;;;2.86;39.99
44685;BME280;76140;45.696;8.652;2024-02-16T02:53:00;98950.01;;;2.43;39.88
44685;BME280;76140;45.696;8.652;2024-02-16T02:55:25;98950.76;;;2.54;39.92
44685;BME280;76140;45.696;8.652;2024-02-16T02:57:51;98953.04;;;2.87;39.50
44685;BME280;76140;45.696;8.652;2024-02-16T03:00:17;98950.32;;;2.35;39.53
44685;BME280;76140;45.696;8.652;2024-02-16T03:02:42;98950.73;;;1.70;40.58
44685;BME280;76140;45.696;8.652;2024-02-16T03:05:08;98948.78;;;2.07;39.96
44685;BME280;76140;45.696;8.652;2024-02-16T03:07:33;98953.29;;;2.60;39.41
44685;BME280;76140;45.696;8.652;2024-02-16T03:09:58;98949.98;;;2.20;39.39
44685;BME280;76140;45.696;8.652;2024-02-16T03:12:23;98949.90;;;2.21;39.51
44685;BME280;76140;45.696;8.652;2024-02-16T03:14:49;98949.06;;;2.65;39.68
44685;BME280;76140;45.696;8.652;2024-02-16T03:17:15;98951.02;;;2.02;40.54
44685;BME280;76140;45.696;8.652;2024-02-16T03:19:41;98947.71;;;2.20;39.60
44685;BME280;76140;45.696;8.652;2024-02-16T03:22:06;98947.34;;;2.10;39.57
44685;BME280;76140;45.696;8.652;2024-02-16T03:24:32;98946.24;;;2.36;39.77
44685;BME280;76140;45.696;8.652;2024-02-16T03:26:57;98945.60;;;1.86;40.34
44685;BME280;76140;45.696;8.652;2024-02-16T03:29:22;98942.35;;;2.41;39.63
44685;BME280;76140;45.696;8.652;2024-02-16T03:31:50;98944.60;;;2.35;40.04
44685;BME280;76140;45.696;8.652;2024-02-16T03:34:14;98947.09;;;2.09;39.72
44685;BME280;76140;45.696;8.652;2024-02-16T03:36:39;98945.57;;;1.95;39.69
44685;BME280;76140;45.696;8.652;2024-02-16T03:39:04;98946.50;;;1.51;40.00
44685;BME280;76140;45.696;8.652;2024-02-16T03:41:30;98947.33;;;2.12;39.27
44685;BME280;76140;45.696;8.652;2024-02-16T03:43:55;98946.87;;;2.05;39.35
44685;BME280;76140;45.696;8.652;2024-02-16T03:46:21;98949.16;;;2.31;39.13
44685;BME280;76140;45.696;8.652;2024-02-16T03:48:47;98951.28;;;2.45;39.45
44685;BME280;76140;45.696;8.652;2024-02-16T03:51:13;98957.65;;;1.98;40.19
44685;BME280;76140;45.696;8.652;2024-02-16T03:53:38;98953.86;;;2.25;39.49
44685;BME280;76140;45.696;8.652;2024-02-16T03:56:04;98955.67;;;2.07;39.60
44685;BME280;76140;45.696;8.652;2024-02-16T03:58:31;98949.88;;;2.16;39.49
44685;BME280;76140;45.696;8.652;2024-02-16T04:00:54;98947.37;;;1.98;39.42
44685;BME280;76140;45.696;8.652;2024-02-16T04:03:20;98948.16;;;1.83;40.82
44685;BME280;76140;45.696;8.652;2024-02-16T04:05:45;98945.15;;;2.09;40.05
44685;BME280;76140;45.696;8.652;2024-02-16T04:08:11;98945.55;;;1.99;39.80
44685;BME280;76140;45.696;8.652;2024-02-16T04:10:36;98944.74;;;1.71;40.05
44685;BME280;76140;45.696;8.652;2024-02-16T04:13:02;98946.70;;;1.89;40.31
44685;BME280;76140;45.696;8.652;2024-02-16T04:15:27;98950.52;;;1.94;40.33
44685;BME280;76140;45.696;8.652;2024-02-16T04:17:52;98951.05;;;1.86;40.02
44685;BME280;76140;45.696;8.652;2024-02-16T04:20:18;98950.38;;;1.85;40.53
44685;BME280;76140;45.696;8.652;2024-02-16T04:22:43;98948.06;;;1.79;40.19
44685;BME280;76140;45.696;8.652;2024-02-16T04:25:08;98951.61;;;0.85;41.04
44685;BME280;76140;45.696;8.652;2024-02-16T04:27:34;98946.14;;;1.69;40.69
44685;BME280;76140;45.696;8.652;2024-02-16T04:30:00;98947.40;;;0.90;41.20
44685;BME280;76140;45.696;8.652;2024-02-16T04:32:25;98944.65;;;1.40;40.88
44685;BME280;76140;45.696;8.652;2024-02-16T04:34:50;98947.66;;;1.33;41.15
44685;BME280;76140;45.696;8.652;2024-02-16T04:37:16;98947.63;;;1.60;40.98
44685;BME280;76140;45.696;8.652;2024-02-16T04:39:40;98940.75;;;1.28;41.06
44685;BME280;76140;45.696;8.652;2024-02-16T04:42:06;98942.91;;;0.99;41.54
44685;BME280;76140;45.696;8.652;2024-02-16T04:44:32;98941.97;;;1.45;41.50
44685;BME280;76140;45.696;8.652;2024-02-16T04:46:57;98942.28;;;1.31;41.18
44685;BME280;76140;45.696;8.652;2024-02-16T04:49:23;98945.53;;;1.08;41.34
44685;BME280;76140;45.696;8.652;2024-02-16T04:51:48;98942.61;;;1.68;40.38
44685;BME280;76140;45.696;8.652;2024-02-16T04:54:13;98948.00;;;2.12;40.55
44685;BME280;76140;45.696;8.652;2024-02-16T04:56:38;98949.19;;;1.95;40.17
44685;BME280;76140;45.696;8.652;2024-02-16T04:59:04;98944.99;;;1.79;40.00
44685;BME280;76140;45.696;8.652;2024-02-16T05:01:30;98948.56;;;1.62;40.07
44685;BME280;76140;45.696;8.652;2024-02-16T05:03:55;98946.93;;;1.39;40.40
44685;BME280;76140;45.696;8.652;2024-02-16T05:06:21;98944.96;;;-0.05;42.27
44685;BME280;76140;45.696;8.652;2024-02-16T05:08:46;98941.85;;;-0.76;43.10
44685;BME280;76140;45.696;8.652;2024-02-16T05:11:12;98941.25;;;0.61;41.72
44685;BME280;76140;45.696;8.652;2024-02-16T05:13:38;98939.39;;;1.26;41.34
44685;BME280;76140;45.696;8.652;2024-02-16T05:16:08;98937.68;;;1.09;41.25
44685;BME280;76140;45.696;8.652;2024-02-16T05:18:28;98937.77;;;1.14;40.93
44685;BME280;76140;45.696;8.652;2024-02-16T05:20:53;98937.75;;;1.31;41.31
44685;BME280;76140;45.696;8.652;2024-02-16T05:23:19;98935.54;;;1.43;40.85
44685;BME280;76140;45.696;8.652;2024-02-16T05:25:44;98935.49;;;1.41;40.62
44685;BME280;76140;45.696;8.652;2024-02-16T05:28:09;98939.11;;;1.37;40.79
44685;BME280;76140;45.696;8.652;2024-02-16T05:30:35;98937.63;;;1.93;40.16
44685;BME280;76140;45.696;8.652;2024-02-16T05:33:00;98934.91;;;1.57;40.45
44685;BME280;76140;45.696;8.652;2024-02-16T05:35:26;98934.24;;;1.29;41.35
44685;BME280;76140;45.696;8.652;2024-02-16T05:37:51;98935.57;;;1.54;41.41
44685;BME280;76140;45.696;8.652;2024-02-16T05:40:17;98933.56;;;1.29;41.21
44685;BME280;76140;45.696;8.652;2024-02-16T05:42:43;98924.16;;;1.68;41.08
44685;BME280;76140;45.696;8.652;2024-02-16T05:45:09;98922.46;;;1.04;41.20
44685;BME280;76140;45.696;8.652;2024-02-16T05:47:34;98925.10;;;1.41;41.33
44685;BME280;76140;45.696;8.652;2024-02-16T05:49:59;98930.98;;;1.13;41.08
44685;BME280;76140;45.696;8.652;2024-02-16T05:52:24;98930.82;;;1.13;41.41
44685;BME280;76140;45.696;8.652;2024-02-16T05:54:49;98927.85;;;1.49;40.63
44685;BME280;76140;45.696;8.652;2024-02-16T05:57:15;98929.99;;;1.79;40.72
44685;BME280;76140;45.696;8.652;2024-02-16T05:59:41;98928.38;;;1.65;40.66
44685;BME280;76140;45.696;8.652;2024-02-16T06:02:06;98930.42;;;1.49;40.87
44685;BME280;76140;45.696;8.652;2024-02-16T06:04:31;98931.26;;;1.48;40.96
44685;BME280;76140;45.696;8.652;2024-02-16T06:06:57;98930.06;;;1.72;40.32
44685;BME280;76140;45.696;8.652;2024-02-16T06:09:22;98935.51;;;0.59;41.57
44685;BME280;76140;45.696;8.652;2024-02-16T06:11:47;98927.52;;;1.56;40.69
44685;BME280;76140;45.696;8.652;2024-02-16T06:14:13;98933.96;;;0.78;41.72
44685;BME280;76140;45.696;8.652;2024-02-16T06:16:38;98930.75;;;1.48;41.10
44685;BME280;76140;45.696;8.652;2024-02-16T06:19:04;98935.19;;;0.89;41.76
44685;BME280;76140;45.696;8.652;2024-02-16T06:21:30;98936.81;;;1.31;41.24
44685;BME280;76140;45.696;8.652;2024-02-16T06:23:55;98941.71;;;1.34;40.94
44685;BME280;76140;45.696;8.652;2024-02-16T06:26:21;98943.07;;;1.58;40.91
44685;BME280;76140;45.696;8.652;2024-02-16T06:28:46;98952.24;;;1.35;41.64
44685;BME280;76140;45.696;8.652;2024-02-16T06:31:13;98954.19;;;1.23;41.44
44685;BME280;76140;45.696;8.652;2024-02-16T06:33:37;98957.64;;;1.23;40.95
44685;BME280;76140;45.696;8.652;2024-02-16T06:36:03;98959.22;;;0.53;41.48
44685;BME280;76140;45.696;8.652;2024-02-16T06:38:28;98964.28;;;1.16;42.13
44685;BME280;76140;45.696;8.652;2024-02-16T06:40:53;98964.02;;;1.19;41.22
44685;BME280;76140;45.696;8.652;2024-02-16T06:43:18;98961.10;;;1.35;41.05
44685;BME280;76140;45.696;8.652;2024-02-16T06:45:44;98961.12;;;0.91;41.30
44685;BME280;76140;45.696;8.652;2024-02-16T06:48:09;98962.38;;;1.42;40.71
44685;BME280;76140;45.696;8.652;2024-02-16T06:50:34;98962.97;;;0.33;41.90
44685;BME280;76140;45.696;8.652;2024-02-16T06:53:00;98961.68;;;1.64;40.78
44685;BME280;76140;45.696;8.652;2024-02-16T06:55:25;98966.04;;;1.04;40.97
44685;BME280;76140;45.696;8.652;2024-02-16T06:57:50;98965.99;;;0.16;41.87
44685;BME280;76140;45.696;8.652;2024-02-16T07:00:17;98961.68;;;2.53;39.89
44685;BME280;76140;45.696;8.652;2024-02-16T07:02:41;98963.53;;;1.84;40.38
44685;BME280;76140;45.696;8.652;2024-02-16T07:05:06;98961.34;;;2.36;39.77
44685;BME280;76140;45.696;8.652;2024-02-16T07:07:31;98965.02;;;2.21;40.33
44685;BME280;76140;45.696;8.652;2024-02-16T07:09:57;98961.97;;;2.22;39.36
44685;BME280;76140;45.696;8.652;2024-02-16T07:12:23;98967.27;;;2.82;38.87
44685;BME280;76140;45.696;8.652;2024-02-16T07:14:48;98967.37;;;3.28;38.69
44685;BME280;76140;45.696;8.652;2024-02-16T07:17:13;98974.23;;;2.82;38.73
44685;BME280;76140;45.696;8.652;2024-02-16T07:19:39;98974.16;;;2.81;39.02
44685;BME280;76140;45.696;8.652;2024-02-16T07:22:05;98977.27;;;2.63;39.19
44685;BME280;76140;45.696;8.652;2024-02-16T07:24:30;98978.70;;;2.34;38.94
44685;BME280;76140;45.696;8.652;2024-02-16T07:26:55;98979.42;;;3.20;38.85
44685;BME280;76140;45.696;8.652;2024-02-16T07:29:20;98979.60;;;3.57;38.00
44685;BME280;76140;45.696;8.652;2024-02-16T07:31:46;98981.22;;;2.55;38.60
44685;BME280;76140;45.696;8.652;2024-02-16T07:34:12;98981.66;;;2.63;38.62
44685;BME280;76140;45.696;8.652;2024-02-16T07:36:37;98982.84;;;2.58;38.59
44685;BME280;76140;45.696;8.652;2024-02-16T07:39:03;98983.32;;;2.76;39.22
44685;BME280;76140;45.696;8.652;2024-02-16T07:41:28;98983.98;;;3.23;38.27
44685;BME280;76140;45.696;8.652;2024-02-16T07:43:54;98986.48;;;3.46;38.57
44685;BME280;76140;45.696;8.652;2024-02-16T07:46:19;98989.42;;;3.53;38.13
44685;BME280;76140;45.696;8.652;2024-02-16T07:48:44;98986.78;;;3.87;38.30
44685;BME280;76140;45.696;8.652;2024-02-16T07:51:10;98987.11;;;3.19;38.47
44685;BME280;76140;45.696;8.652;2024-02-16T07:53:35;98990.20;;;3.60;38.10
44685;BME280;76140;45.696;8.652;2024-02-16T07:56:00;98987.70;;;4.19;37.47
44685;BME280;76140;45.696;8.652;2024-02-16T07:58:26;98987.16;;;4.88;36.57
44685;BME280;76140;45.696;8.652;2024-02-16T08:00:51;98987.25;;;5.32;35.77
44685;BME280;76140;45.696;8.652;2024-02-16T08:03:17;98987.81;;;6.15;34.56
44685;BME280;76140;45.696;8.652;2024-02-16T08:05:42;98985.93;;;5.54;35.46
44685;BME280;76140;45.696;8.652;2024-02-16T08:08:07;98988.82;;;5.61;35.65
44685;BME280;76140;45.696;8.652;2024-02-16T08:10:32;98988.65;;;5.32;35.42
44685;BME280;76140;45.696;8.652;2024-02-16T08:12:57;98987.39;;;6.03;34.59
44685;BME280;76140;45.696;8.652;2024-02-16T08:15:22;98985.77;;;5.84;34.35
44685;BME280;76140;45.696;8.652;2024-02-16T08:17:48;98987.29;;;5.63;35.06
44685;BME280;76140;45.696;8.652;2024-02-16T08:20:13;98989.75;;;5.41;35.44
44685;BME280;76140;45.696;8.652;2024-02-16T08:22:38;98989.14;;;5.51;35.59
44685;BME280;76140;45.696;8.652;2024-02-16T08:25:05;98989.75;;;5.33;35.74
44685;BME280;76140;45.696;8.652;2024-02-16T08:27:30;98991.25;;;5.45;35.43
44685;BME280;76140;45.696;8.652;2024-02-16T08:29:56;98990.18;;;5.83;35.01
44685;BME280;76140;45.696;8.652;2024-02-16T08:32:21;98992.92;;;5.98;34.83
44685;BME280;76140;45.696;8.652;2024-02-16T08:34:46;98991.03;;;6.36;34.57
44685;BME280;76140;45.696;8.652;2024-02-16T08:37:12;98993.79;;;6.53;34.63
44685;BME280;76140;45.696;8.652;2024-02-16T08:39:38;98994.33;;;6.67;34.09
44685;BME280;76140;45.696;8.652;2024-02-16T08:42:04;98989.87;;;6.96;33.86
44685;BME280;76140;45.696;8.652;2024-02-16T08:44:29;98983.80;;;7.19;33.25
44685;BME280;76140;45.696;8.652;2024-02-16T08:46:54;98984.06;;;7.30;33.17
44685;BME280;76140;45.696;8.652;2024-02-16T08:49:20;98987.92;;;7.40;33.05
44685;BME280;76140;45.696;8.652;2024-02-16T08:51:46;98985.91;;;7.79;32.63
44685;BME280;76140;45.696;8.652;2024-02-16T08:54:11;98986.39;;;7.53;32.85
44685;BME280;76140;45.696;8.652;2024-02-16T08:56:37;98985.53;;;7.59;32.77
44685;BME280;76140;45.696;8.652;2024-02-16T08:59:02;98986.83;;;7.63;32.96
44685;BME280;76140;45.696;8.652;2024-02-16T09:01:31;98990.02;;;7.76;32.67
44685;BME280;76140;45.696;8.652;2024-02-16T09:03:53;98991.08;;;6.71;33.21
44685;BME280;76140;45.696;8.652;2024-02-16T09:06:19;98994.00;;;7.72;32.76
44685;BME280;76140;45.696;8.652;2024-02-16T09:08:44;98991.88;;;7.88;32.67
44685;BME280;76140;45.696;8.652;2024-02-16T09:11:09;98994.96;;;8.11;32.57
44685;BME280;76140;45.696;8.652;2024-02-16T09:13:35;98998.74;;;7.85;32.70
44685;BME280;76140;45.696;8.652;2024-02-16T09:16:02;99000.46;;;8.31;32.54
44685;BME280;76140;45.696;8.652;2024-02-16T09:18:25;98999.15;;;8.47;32.45
44685;BME280;76140;45.696;8.652;2024-02-16T09:20:51;98999.59;;;8.34;32.42
44685;BME280;76140;45.696;8.652;2024-02-16T09:23:16;98995.37;;;8.20;32.01
44685;BME280;76140;45.696;8.652;2024-02-16T09:25:42;98994.94;;;8.32;32.07
44685;BME280;76140;45.696;8.652;2024-02-16T09:28:08;98996.01;;;8.52;31.80
44685;BME280;76140;45.696;8.652;2024-02-16T09:30:33;98998.41;;;8.25;31.82
44685;BME280;76140;45.696;8.652;2024-02-16T09:32:59;99000.34;;;8.07;32.46
44685;BME280;76140;45.696;8.652;2024-02-16T09:35:24;99000.43;;;8.51;32.05
44685;BME280;76140;45.696;8.652;2024-02-16T09:37:49;99002.02;;;8.57;31.90
44685;BME280;76140;45.696;8.652;2024-02-16T09:40:15;99001.73;;;8.41;31.63
44685;BME280;76140;45.696;8.652;2024-02-16T09:42:40;99004.18;;;8.55;31.81
44685;BME280;76140;45.696;8.652;2024-02-16T09:45:07;99003.60;;;8.08;31.24
44685;BME280;76140;45.696;8.652;2024-02-16T09:47:31;99004.01;;;9.16;30.85
44685;BME280;76140;45.696;8.652;2024-02-16T09:49:56;99004.46;;;9.36;30.80
44685;BME280;76140;45.696;8.652;2024-02-16T09:52:22;99003.37;;;9.16;30.32
44685;BME280;76140;45.696;8.652;2024-02-16T09:54:47;98999.38;;;9.90;29.77
44685;BME280;76140;45.696;8.652;2024-02-16T09:57:12;98998.85;;;10.59;29.14
44685;BME280;76140;45.696;8.652;2024-02-16T09:59:37;98998.97;;;11.11;28.49
44685;BME280;76140;45.696;8.652;2024-02-16T10:02:03;98992.55;;;13.35;26.43
44685;BME280;76140;45.696;8.652;2024-02-16T10:04:28;98995.43;;;13.88;25.68
44685;BME280;76140;45.696;8.652;2024-02-16T10:06:53;98989.86;;;14.83;24.32
44685;BME280;76140;45.696;8.652;2024-02-16T10:09:26;98991.03;;;15.62;24.18
44685;BME280;76140;45.696;8.652;2024-02-16T10:11:44;98992.39;;;13.27;25.59
44685;BME280;76140;45.696;8.652;2024-02-16T10:14:09;98994.11;;;12.41;26.15
44685;BME280;76140;45.696;8.652;2024-02-16T10:16:34;98996.89;;;12.22;26.54
44685;BME280;76140;45.696;8.652;2024-02-16T10:19:05;98997.20;;;12.57;26.41
44685;BME280;76140;45.696;8.652;2024-02-16T10:21:26;99000.82;;;13.75;24.94
44685;BME280;76140;45.696;8.652;2024-02-16T10:23:59;98995.44;;;15.18;24.19
44685;BME280;76140;45.696;8.652;2024-02-16T10:26:15;98996.30;;;15.72;24.24
44685;BME280;76140;45.696;8.652;2024-02-16T10:28:41;98999.33;;;16.49;22.81
44685;BME280;76140;45.696;8.652;2024-02-16T10:31:07;98997.77;;;15.92;23.36
44685;BME280;76140;45.696;8.652;2024-02-16T10:33:32;98997.65;;;15.99;23.14
44685;BME280;76140;45.696;8.652;2024-02-16T10:35:58;98994.79;;;14.05;24.17
44685;BME280;76140;45.696;8.652;2024-02-16T10:38:24;98997.42;;;13.68;24.56
44685;BME280;76140;45.696;8.652;2024-02-16T10:40:51;98996.79;;;14.64;24.01
44685;BME280;76140;45.696;8.652;2024-02-16T10:43:15;98994.89;;;15.83;22.89
44685;BME280;76140;45.696;8.652;2024-02-16T10:45:40;98993.55;;;16.39;22.61
44685;BME280;76140;45.696;8.652;2024-02-16T10:48:06;98993.21;;;14.29;24.20
44685;BME280;76140;45.696;8.652;2024-02-16T10:50:32;98986.72;;;15.16;23.88
44685;BME280;76140;45.696;8.652;2024-02-16T10:52:58;98986.47;;;16.02;23.26
44685;BME280;76140;45.696;8.652;2024-02-16T10:55:22;98985.65;;;16.59;22.85
44685;BME280;76140;45.696;8.652;2024-02-16T10:57:46;98983.39;;;16.50;22.61
44685;BME280;76140;45.696;8.652;2024-02-16T11:00:16;98980.48;;;15.22;22.52
44685;BME280;76140;45.696;8.652;2024-02-16T11:03:16;98975.99;;;14.40;23.23
44685;BME280;76140;45.696;8.652;2024-02-16T11:05:08;98977.62;;;12.74;24.38
44685;BME280;76140;45.696;8.652;2024-02-16T11:07:28;98976.06;;;12.50;25.02
44685;BME280;76140;45.696;8.652;2024-02-16T11:09:53;98972.69;;;12.68;25.17
44685;BME280;76140;45.696;8.652;2024-02-16T11:12:18;98967.07;;;12.13;25.27
44685;BME280;76140;45.696;8.652;2024-02-16T11:14:45;98963.99;;;12.90;24.78
44685;BME280;76140;45.696;8.652;2024-02-16T11:17:10;98962.91;;;12.55;24.93
44685;BME280;76140;45.696;8.652;2024-02-16T11:19:34;98963.41;;;12.41;24.72
44685;BME280;76140;45.696;8.652;2024-02-16T11:22:02;98961.35;;;12.78;24.87
44685;BME280;76140;45.696;8.652;2024-02-16T11:24:30;98959.42;;;12.23;25.26
44685;BME280;76140;45.696;8.652;2024-02-16T11:26:50;98960.39;;;12.28;25.52
44685;BME280;76140;45.696;8.652;2024-02-16T11:29:15;98956.67;;;12.33;25.22
44685;BME280;76140;45.696;8.652;2024-02-16T11:31:43;98953.73;;;12.28;25.38
44685;BME280;76140;45.696;8.652;2024-02-16T11:34:07;98950.37;;;12.22;24.68
44685;BME280;76140;45.696;8.652;2024-02-16T11:36:32;98948.34;;;12.70;24.71
44685;BME280;76140;45.696;8.652;2024-02-16T11:38:58;98944.24;;;12.83;24.92
44685;BME280;76140;45.696;8.652;2024-02-16T11:41:23;98944.30;;;12.37;24.74
44685;BME280;76140;45.696;8.652;2024-02-16T11:43:48;98943.92;;;12.52;24.71
44685;BME280;76140;45.696;8.652;2024-02-16T11:46:15;98940.08;;;12.31;24.97
44685;BME280;76140;45.696;8.652;2024-02-16T11:48:39;98939.38;;;13.09;24.66
44685;BME280;76140;45.696;8.652;2024-02-16T11:51:04;98935.80;;;12.74;25.04
44685;BME280;76140;45.696;8.652;2024-02-16T11:53:29;98932.49;;;12.50;24.91
44685;BME280;76140;45.696;8.652;2024-02-16T11:55:55;98931.51;;;12.43;25.22
44685;BME280;76140;45.696;8.652;2024-02-16T11:58:21;98928.45;;;12.26;25.18
44685;BME280;76140;45.696;8.652;2024-02-16T12:00:46;98927.16;;;12.31;25.57
44685;BME280;76140;45.696;8.652;2024-02-16T12:03:11;98925.79;;;11.74;25.42
44685;BME280;76140;45.696;8.652;2024-02-16T12:05:37;98928.46;;;12.23;25.77
44685;BME280;76140;45.696;8.652;2024-02-16T12:08:03;98927.39;;;12.47;25.51
44685;BME280;76140;45.696;8.652;2024-02-16T12:10:29;98924.87;;;12.16;25.16
44685;BME280;76140;45.696;8.652;2024-02-16T12:12:54;98925.65;;;10.74;26.11
44685;BME280;76140;45.696;8.652;2024-02-16T12:15:19;98927.68;;;11.66;25.81
44685;BME280;76140;45.696;8.652;2024-02-16T12:17:44;98925.63;;;12.57;25.01
44685;BME280;76140;45.696;8.652;2024-02-16T12:20:11;98923.28;;;11.70;25.13
44685;BME280;76140;45.696;8.652;2024-02-16T12:22:35;98929.68;;;10.30;26.44
44685;BME280;76140;45.696;8.652;2024-02-16T12:25:00;98927.31;;;10.60;26.60
44685;BME280;76140;45.696;8.652;2024-02-16T12:27:26;98928.39;;;10.09;27.80
44685;BME280;76140;45.696;8.652;2024-02-16T12:29:51;98928.57;;;9.26;28.54
44685;BME280;76140;45.696;8.652;2024-02-16T12:32:17;98928.37;;;8.90;29.07
44685;BME280;76140;45.696;8.652;2024-02-16T12:34:42;98929.98;;;8.22;30.04
44685;BME280;76140;45.696;8.652;2024-02-16T12:37:08;98923.85;;;9.42;28.83
44685;BME280;76140;45.696;8.652;2024-02-16T12:39:33;98918.18;;;9.73;28.46
44685;BME280;76140;45.696;8.652;2024-02-16T12:41:59;98915.63;;;10.43;27.90
44685;BME280;76140;45.696;8.652;2024-02-16T12:44:24;98915.75;;;10.73;27.44
44685;BME280;76140;45.696;8.652;2024-02-16T12:46:50;98915.66;;;9.51;27.45
44685;BME280;76140;45.696;8.652;2024-02-16T12:49:15;98913.44;;;10.21;26.87
44685;BME280;76140;45.696;8.652;2024-02-16T12:51:41;98909.26;;;10.74;26.87
44685;BME280;76140;45.696;8.652;2024-02-16T12:54:06;98904.41;;;11.04;26.39
44685;BME280;76140;45.696;8.652;2024-02-16T12:56:31;98905.88;;;10.51;26.98